Time;durP1;ratioP1;P1;durP2;ratioP2;P2;SDS_P1;SDS_P2;PMS_P1;PMS_P2;Temp;Humidity;BMP_temperature;BMP_pressure;BME280_temperature;BME280_humidity;BME280_pressure;Samples;Min_cycle;Max_cycle;Signal;HPM_P1;HPM_P2
2023/06/30 00:01:29;;;;;;;7.00;2.05;;;14.90;99.90;;;;;;5014423;28;20069;-81
2023/06/30 00:03:55;;;;;;;11.15;2.78;;;14.80;99.90;;;;;;5015766;28;20072;-81
2023/06/30 00:06:21;;;;;;;8.25;2.47;;;14.80;99.90;;;;;;5013320;28;20046;-81
2023/06/30 00:08:48;;;;;;;9.52;2.03;;;14.80;99.90;;;;;;5014437;28;20045;-82
2023/06/30 00:11:14;;;;;;;6.97;1.70;;;14.70;99.90;;;;;;5011339;28;20116;-80
2023/06/30 00:13:39;;;;;;;8.40;2.35;;;14.70;99.90;;;;;;5012110;28;20169;-81
2023/06/30 00:16:05;;;;;;;9.55;2.08;;;14.60;99.90;;;;;;5012155;28;20563;-80
2023/06/30 00:18:30;;;;;;;9.88;2.55;;;14.60;99.90;;;;;;5014798;28;20053;-81
2023/06/30 00:20:57;;;;;;;9.40;2.25;;;14.60;99.90;;;;;;5012768;28;20037;-81
2023/06/30 00:23:27;;;;;;;9.60;2.47;;;14.50;99.90;;;;;;5013760;28;20049;-80
2023/06/30 00:25:53;;;;;;;11.73;2.55;;;14.50;99.90;;;;;;5012702;28;20038;-80
2023/06/30 00:28:18;;;;;;;12.38;2.20;;;14.50;99.90;;;;;;5016231;28;20046;-80
2023/06/30 00:30:44;;;;;;;10.75;1.92;;;14.40;99.90;;;;;;5013973;28;20044;-81
2023/06/30 00:33:10;;;;;;;10.13;3.00;;;14.40;99.90;;;;;;5010835;28;20057;-81
2023/06/30 00:35:35;;;;;;;12.35;2.38;;;14.30;99.90;;;;;;5009919;28;20050;-80
2023/06/30 00:38:01;;;;;;;8.68;2.45;;;14.30;99.90;;;;;;5010770;28;20100;-81
2023/06/30 00:40:26;;;;;;;7.35;1.98;;;14.30;99.90;;;;;;5008842;28;20041;-80
2023/06/30 00:42:52;;;;;;;6.38;2.20;;;14.30;99.90;;;;;;5013985;28;20476;-80
2023/06/30 00:45:18;;;;;;;8.52;2.60;;;14.30;99.90;;;;;;5015689;28;20125;-80
2023/06/30 00:47:43;;;;;;;12.45;2.97;;;14.20;99.90;;;;;;5009761;28;20043;-81
2023/06/30 00:50:09;;;;;;;9.07;1.98;;;14.20;99.90;;;;;;5016101;28;20037;-81
2023/06/30 00:52:35;;;;;;;10.63;3.35;;;14.20;99.90;;;;;;5005459;28;20084;-81
2023/06/30 00:55:01;;;;;;;7.05;1.92;;;14.10;99.90;;;;;;5010031;28;20042;-80
2023/06/30 00:57:26;;;;;;;10.52;2.67;;;14.10;99.90;;;;;;5011413;28;20061;-81
2023/06/30 00:59:52;;;;;;;10.90;2.33;;;14.10;99.90;;;;;;5015169;28;20029;-80
2023/06/30 01:02:22;;;;;;;8.45;3.45;;;14.10;99.90;;;;;;5013047;28;20037;-80
2023/06/30 01:05:14;;;;;;;20.55;3.85;;;14.10;99.90;;;;;;5011433;28;20038;-81
2023/06/30 01:07:59;;;;;;;9.85;2.38;;;14.10;99.90;;;;;;5010488;28;20137;-80
2023/06/30 01:10:29;;;;;;;11.70;1.80;;;14.10;99.90;;;;;;5009695;28;20634;-80
2023/06/30 01:12:56;;;;;;;7.43;2.17;;;14.10;99.90;;;;;;5014730;28;20044;-80
2023/06/30 01:15:22;;;;;;;9.15;2.70;;;14.00;99.90;;;;;;5011522;28;20064;-80
2023/06/30 01:17:56;;;;;;;8.20;2.00;;;14.10;99.90;;;;;;5013786;28;20552;-80
2023/06/30 01:20:22;;;;;;;12.23;2.85;;;14.10;99.90;;;;;;5010761;28;20104;-81
2023/06/30 01:23:07;;;;;;;10.07;2.25;;;14.00;99.90;;;;;;5007033;28;20049;-81
2023/06/30 01:25:33;;;;;;;8.73;1.88;;;14.00;99.90;;;;;;5005932;28;20133;-80
2023/06/30 01:27:59;;;;;;;9.90;2.58;;;14.00;99.90;;;;;;5011968;28;20520;-80
2023/06/30 01:30:29;;;;;;;13.32;2.70;;;13.90;99.90;;;;;;5010730;28;20041;-80
2023/06/30 01:32:58;;;;;;;10.07;1.88;;;13.90;99.90;;;;;;5014252;28;20178;-80
2023/06/30 01:35:24;;;;;;;9.43;2.47;;;13.90;99.90;;;;;;5008271;28;20033;-80
2023/06/30 01:37:49;;;;;;;11.63;2.75;;;13.90;99.90;;;;;;5007102;28;20442;-80
2023/06/30 01:40:16;;;;;;;6.82;2.00;;;13.90;99.90;;;;;;5012748;28;20116;-81
2023/06/30 01:42:42;;;;;;;9.57;2.55;;;13.90;99.90;;;;;;5013001;28;20127;-80
2023/06/30 01:45:10;;;;;;;8.98;3.00;;;13.90;99.90;;;;;;5013129;28;20046;-82
2023/06/30 01:47:36;;;;;;;10.25;1.85;;;13.80;99.90;;;;;;5011860;28;20408;-80
2023/06/30 01:50:02;;;;;;;11.73;2.55;;;13.90;99.90;;;;;;5012893;28;20041;-80
2023/06/30 01:52:28;;;;;;;16.27;3.10;;;13.80;99.90;;;;;;5013444;28;20046;-80
2023/06/30 01:54:54;;;;;;;7.07;1.98;;;13.80;99.90;;;;;;5013125;28;20502;-80
2023/06/30 01:57:19;;;;;;;6.28;2.03;;;13.80;99.90;;;;;;5010924;28;20046;-80
2023/06/30 01:59:45;;;;;;;7.57;2.25;;;13.70;99.90;;;;;;5010209;28;20053;-82
2023/06/30 02:02:11;;;;;;;7.38;2.45;;;13.70;99.90;;;;;;5012105;28;20583;-80
2023/06/30 02:04:36;;;;;;;7.90;1.83;;;13.70;99.90;;;;;;5009853;28;20048;-81
2023/06/30 02:07:02;;;;;;;6.25;2.20;;;13.70;99.90;;;;;;5010332;28;20037;-80
2023/06/30 02:09:28;;;;;;;8.20;2.10;;;13.60;99.90;;;;;;5012806;28;20125;-80
2023/06/30 02:11:53;;;;;;;7.05;1.90;;;13.60;99.90;;;;;;5011183;28;20042;-81
2023/06/30 02:14:19;;;;;;;7.63;1.85;;;13.50;99.90;;;;;;5017257;28;20523;-80
2023/06/30 02:16:44;;;;;;;8.52;2.50;;;13.60;99.90;;;;;;5012506;28;20128;-80
2023/06/30 02:19:10;;;;;;;6.68;1.98;;;13.50;99.90;;;;;;5011135;28;20069;-81
2023/06/30 02:21:35;;;;;;;7.32;1.88;;;13.50;99.90;;;;;;5012599;28;20144;-80
2023/06/30 02:24:01;;;;;;;7.10;2.05;;;13.40;99.90;;;;;;5008956;28;20038;-80
2023/06/30 02:26:26;;;;;;;10.65;1.92;;;13.30;99.90;;;;;;5012540;28;20050;-80
2023/06/30 02:28:52;;;;;;;6.22;2.10;;;13.30;99.90;;;;;;5011724;28;20064;-80
2023/06/30 02:31:17;;;;;;;7.53;2.33;;;13.30;99.90;;;;;;5014189;28;20037;-80
2023/06/30 02:33:43;;;;;;;9.50;2.15;;;13.30;99.90;;;;;;5012987;28;20042;-80
2023/06/30 02:36:09;;;;;;;6.95;1.95;;;13.20;99.90;;;;;;5016975;28;20069;-80
2023/06/30 02:38:34;;;;;;;8.32;2.38;;;13.20;99.90;;;;;;5013003;28;20151;-80
2023/06/30 02:41:00;;;;;;;11.27;2.28;;;13.20;99.90;;;;;;5018012;28;20592;-80
2023/06/30 02:43:25;;;;;;;9.40;1.90;;;13.10;99.90;;;;;;5010905;28;20324;-78
2023/06/30 02:45:51;;;;;;;8.77;1.80;;;13.10;99.90;;;;;;5021672;28;20046;-80
2023/06/30 02:48:17;;;;;;;7.13;2.08;;;13.10;99.90;;;;;;5012480;28;20044;-80
2023/06/30 02:50:44;;;;;;;11.27;2.47;;;13.00;99.90;;;;;;5013662;28;20407;-80
2023/06/30 02:53:09;;;;;;;7.63;2.10;;;13.10;99.90;;;;;;5017916;28;20044;-80
2023/06/30 02:55:36;;;;;;;10.70;2.47;;;13.10;99.90;;;;;;5011597;28;20037;-80
2023/06/30 02:58:02;;;;;;;6.45;2.22;;;13.00;99.90;;;;;;5011519;28;20049;-80
2023/06/30 03:00:27;;;;;;;10.68;2.00;;;13.00;99.90;;;;;;5013712;28;20095;-80
2023/06/30 03:02:53;;;;;;;8.68;1.63;;;13.00;99.90;;;;;;5017457;28;20565;-80
2023/06/30 03:05:19;;;;;;;7.35;1.90;;;13.00;99.90;;;;;;5014644;28;20049;-80
2023/06/30 03:07:45;;;;;;;6.75;1.80;;;13.00;99.90;;;;;;5015467;28;20045;-80
2023/06/30 03:10:11;;;;;;;5.32;1.50;;;13.00;99.90;;;;;;5022162;28;20048;-80
2023/06/30 03:12:37;;;;;;;11.85;2.53;;;12.90;99.90;;;;;;5014973;28;20502;-80
2023/06/30 03:15:03;;;;;;;9.80;2.00;;;12.90;99.90;;;;;;5013838;28;20041;-81
2023/06/30 03:17:28;;;;;;;6.97;1.65;;;12.90;99.90;;;;;;5014208;28;20406;-80
2023/06/30 03:19:54;;;;;;;8.52;2.42;;;12.90;99.90;;;;;;5015609;28;20117;-80
2023/06/30 03:22:19;;;;;;;7.03;1.80;;;12.90;99.90;;;;;;5013421;28;20093;-80
2023/06/30 03:24:45;;;;;;;7.75;1.70;;;12.90;99.90;;;;;;5014211;28;20044;-80
2023/06/30 03:27:11;;;;;;;6.25;1.90;;;12.90;99.90;;;;;;5015464;28;20447;-79
2023/06/30 03:29:36;;;;;;;7.40;1.98;;;12.80;99.90;;;;;;5010894;28;20722;-80
2023/06/30 03:32:02;;;;;;;4.13;1.75;;;12.80;99.90;;;;;;5015424;28;20050;-82
2023/06/30 03:34:27;;;;;;;8.27;2.25;;;12.80;99.90;;;;;;5015090;28;20076;-80
2023/06/30 03:36:53;;;;;;;10.10;2.00;;;12.80;99.90;;;;;;5011801;28;20132;-82
2023/06/30 03:39:19;;;;;;;9.02;2.78;;;12.80;99.90;;;;;;5016670;28;20120;-80
2023/06/30 03:41:44;;;;;;;7.38;1.70;;;12.80;99.90;;;;;;5012701;28;20038;-80
2023/06/30 03:44:11;;;;;;;7.35;2.70;;;12.80;99.90;;;;;;4999052;28;20627;-80
2023/06/30 03:46:37;;;;;;;9.77;2.53;;;12.90;99.90;;;;;;5011163;28;20042;-80
2023/06/30 03:49:03;;;;;;;5.05;1.75;;;12.80;99.90;;;;;;5013988;28;20432;-80
2023/06/30 03:51:28;;;;;;;7.18;1.60;;;12.80;99.90;;;;;;5012592;28;20045;-79
2023/06/30 03:53:54;;;;;;;8.82;1.80;;;12.80;99.90;;;;;;5016384;28;20041;-80
2023/06/30 03:56:19;;;;;;;8.45;1.92;;;12.80;99.90;;;;;;5007930;28;20034;-80
2023/06/30 03:58:45;;;;;;;7.10;1.52;;;12.80;99.90;;;;;;5016531;28;20046;-80
2023/06/30 04:01:11;;;;;;;7.47;2.25;;;12.80;99.90;;;;;;5011458;28;20052;-80
2023/06/30 04:03:37;;;;;;;4.30;1.65;;;12.80;99.90;;;;;;5010389;28;20496;-80
2023/06/30 04:06:03;;;;;;;6.05;1.80;;;12.80;99.90;;;;;;5018651;28;20500;-80
2023/06/30 04:08:29;;;;;;;6.90;1.58;;;12.70;99.90;;;;;;5011415;28;20046;-81
2023/06/30 04:10:55;;;;;;;4.68;1.58;;;12.70;99.90;;;;;;5012662;28;20424;-80
2023/06/30 04:13:20;;;;;;;8.88;2.67;;;12.70;99.90;;;;;;5015846;28;20041;-79
2023/06/30 04:15:46;;;;;;;9.57;2.72;;;12.70;99.90;;;;;;5009737;28;20397;-80
2023/06/30 04:18:11;;;;;;;6.00;1.77;;;12.80;99.90;;;;;;5019657;28;20409;-81
2023/06/30 04:20:37;;;;;;;9.95;2.75;;;12.80;99.90;;;;;;5015032;28;20073;-79
2023/06/30 04:23:03;;;;;;;6.65;1.60;;;12.90;99.90;;;;;;5014000;28;20048;-80
2023/06/30 04:25:29;;;;;;;7.75;3.00;;;12.90;99.90;;;;;;5012781;28;20042;-80
2023/06/30 04:27:54;;;;;;;8.57;1.85;;;13.10;99.90;;;;;;5019712;28;20038;-80
2023/06/30 04:30:20;;;;;;;9.35;2.35;;;13.20;99.90;;;;;;5014398;28;20041;-80
2023/06/30 04:32:46;;;;;;;5.35;1.40;;;13.60;99.90;;;;;;5008705;28;20125;-80
2023/06/30 04:35:12;;;;;;;6.45;1.52;;;14.30;99.90;;;;;;5009741;28;20598;-80
2023/06/30 04:37:40;;;;;;;8.32;1.52;;;15.40;99.90;;;;;;5013085;28;20120;-80
2023/06/30 04:40:10;;;;;;;5.47;1.48;;;16.40;99.90;;;;;;5010066;28;20053;-79
2023/06/30 04:42:36;;;;;;;5.82;1.20;;;17.30;99.90;;;;;;5014447;28;20080;-81
2023/06/30 04:45:02;;;;;;;8.55;1.65;;;17.60;99.90;;;;;;5019165;28;20038;-80
2023/06/30 04:47:28;;;;;;;5.57;1.25;;;18.30;99.90;;;;;;5011427;28;20042;-83
2023/06/30 04:49:54;;;;;;;4.97;1.20;;;19.00;99.90;;;;;;5010437;28;20040;-83
2023/06/30 04:52:19;;;;;;;5.57;1.25;;;19.60;99.90;;;;;;5012441;28;20042;-82
2023/06/30 04:54:45;;;;;;;5.53;1.35;;;20.00;99.90;;;;;;5012135;28;20128;-80
2023/06/30 04:57:11;;;;;;;3.53;1.20;;;20.50;99.90;;;;;;5008866;28;20662;-84
2023/06/30 04:59:37;;;;;;;9.00;1.58;;;20.90;99.90;;;;;;4993186;28;20038;-79
2023/06/30 05:02:02;;;;;;;4.80;1.40;;;21.40;99.90;;;;;;5008151;28;20049;-80
2023/06/30 05:04:28;;;;;;;4.25;1.02;;;21.50;99.90;;;;;;5006424;28;20045;-80
2023/06/30 05:06:54;;;;;;;4.68;1.17;;;21.50;99.90;;;;;;5005924;28;20049;-80
2023/06/30 05:09:19;;;;;;;6.03;1.23;;;21.90;99.90;;;;;;5009144;28;20044;-81
2023/06/30 05:11:45;;;;;;;8.63;1.27;;;22.30;99.90;;;;;;5016327;28;20041;-80
2023/06/30 05:14:10;;;;;;;6.45;1.65;;;22.60;99.90;;;;;;5011390;28;20399;-81
2023/06/30 05:16:36;;;;;;;3.92;1.58;;;22.20;99.90;;;;;;5015778;28;20034;-81
2023/06/30 05:19:02;;;;;;;6.35;1.33;;;21.40;99.90;;;;;;5006474;28;20072;-81
2023/06/30 05:21:29;;;;;;;4.05;1.00;;;20.90;99.90;;;;;;5011187;28;20045;-82
2023/06/30 05:23:55;;;;;;;4.10;1.10;;;21.40;99.90;;;;;;5005578;28;20034;-81
2023/06/30 05:26:21;;;;;;;4.18;1.25;;;22.30;99.90;;;;;;5010759;28;20080;-80
2023/06/30 05:28:46;;;;;;;6.38;1.00;;;22.70;99.90;;;;;;5006780;28;20069;-81
2023/06/30 05:31:12;;;;;;;7.80;1.60;;;22.50;99.90;;;;;;5008681;28;20447;-82
2023/06/30 05:33:37;;;;;;;6.90;1.55;;;22.10;99.90;;;;;;4995576;28;20160;-80
2023/06/30 05:36:03;;;;;;;4.10;0.80;;;21.90;99.90;;;;;;5019679;28;20056;-80
2023/06/30 05:38:29;;;;;;;3.38;0.80;;;21.70;99.90;;;;;;5007594;28;20057;-79
2023/06/30 05:40:55;;;;;;;5.38;1.08;;;21.70;99.90;;;;;;5005694;28;20044;-82
2023/06/30 05:43:20;;;;;;;5.68;1.35;;;21.70;99.90;;;;;;5011574;28;20046;-81
2023/06/30 05:45:46;;;;;;;6.95;1.30;;;21.70;99.90;;;;;;5009506;28;20037;-80
2023/06/30 05:48:12;;;;;;;7.50;1.38;;;21.70;99.90;;;;;;5007378;28;20048;-80
2023/06/30 05:50:37;;;;;;;8.43;2.30;;;21.80;99.90;;;;;;5008646;28;20393;-79
2023/06/30 05:53:03;;;;;;;5.05;1.30;;;22.00;99.90;;;;;;5009695;28;20041;-84
2023/06/30 05:55:28;;;;;;;4.97;1.05;;;22.00;99.90;;;;;;5020845;28;20042;-81
2023/06/30 05:57:54;;;;;;;5.85;0.82;;;21.90;99.90;;;;;;5013795;28;20060;-79
2023/06/30 06:00:20;;;;;;;8.02;1.02;;;22.20;99.90;;;;;;5015513;28;20453;-81
2023/06/30 06:02:45;;;;;;;5.80;1.05;;;22.30;99.90;;;;;;5012402;28;20477;-81
2023/06/30 06:05:11;;;;;;;4.32;0.77;;;22.40;99.90;;;;;;5014431;28;20136;-82
2023/06/30 06:07:37;;;;;;;7.90;1.38;;;22.60;99.90;;;;;;5012266;28;20560;-81
2023/06/30 06:10:03;;;;;;;8.55;1.30;;;22.70;99.90;;;;;;5015663;28;20672;-81
2023/06/30 06:12:29;;;;;;;3.83;1.08;;;22.80;99.90;;;;;;5015727;28;20546;-81
2023/06/30 06:14:55;;;;;;;4.85;0.73;;;22.80;99.90;;;;;;5014552;28;20076;-82
2023/06/30 06:17:22;;;;;;;7.13;0.90;;;22.90;99.90;;;;;;5014545;28;20148;-82
2023/06/30 06:19:47;;;;;;;6.75;1.48;;;22.80;99.90;;;;;;5016261;28;20639;-81
2023/06/30 06:22:13;;;;;;;6.20;1.60;;;23.00;99.90;;;;;;5009227;28;20037;-81
2023/06/30 06:24:38;;;;;;;5.97;0.98;;;22.70;99.90;;;;;;5017210;28;20042;-81
2023/06/30 06:27:04;;;;;;;9.40;1.10;;;22.80;99.90;;;;;;5017451;28;20403;-82
2023/06/30 06:29:30;;;;;;;7.35;1.50;;;22.80;99.90;;;;;;5017267;28;20038;-82
2023/06/30 06:31:55;;;;;;;6.40;1.33;;;22.90;99.90;;;;;;5014323;28;20113;-81
2023/06/30 06:34:21;;;;;;;6.75;1.02;;;23.00;99.90;;;;;;5013919;28;20449;-82
2023/06/30 06:36:47;;;;;;;6.55;0.70;;;23.00;99.90;;;;;;5010272;28;20037;-81
2023/06/30 06:39:14;;;;;;;4.72;0.85;;;22.80;99.90;;;;;;5009249;28;20546;-82
2023/06/30 06:41:39;;;;;;;6.78;1.02;;;22.80;99.90;;;;;;5010958;28;20464;-82
2023/06/30 06:44:05;;;;;;;5.93;0.70;;;22.80;99.90;;;;;;5014419;28;20116;-81
2023/06/30 06:46:31;;;;;;;8.43;1.02;;;22.70;99.90;;;;;;5012605;28;20053;-82
2023/06/30 06:48:56;;;;;;;7.00;1.05;;;22.70;99.90;;;;;;5012028;28;20042;-83
2023/06/30 06:51:23;;;;;;;5.50;0.80;;;22.80;99.90;;;;;;5019774;28;20077;-81
2023/06/30 06:53:51;;;;;;;3.63;0.75;;;22.80;99.90;;;;;;5012821;28;20095;-80
2023/06/30 06:56:17;;;;;;;6.00;1.20;;;22.80;99.90;;;;;;5011475;28;21080;-81
2023/06/30 06:58:42;;;;;;;8.15;1.20;;;22.80;99.90;;;;;;5009196;28;20175;-82
2023/06/30 07:01:09;;;;;;;5.60;0.95;;;22.90;99.90;;;;;;5009332;28;20049;-82
2023/06/30 07:03:35;;;;;;;4.22;0.80;;;22.80;99.90;;;;;;5014926;28;20064;-81
2023/06/30 07:06:02;;;;;;;4.80;0.98;;;23.00;99.90;;;;;;5011288;28;20038;-80
2023/06/30 07:08:28;;;;;;;7.50;1.15;;;23.10;99.90;;;;;;5011639;28;20077;-80
2023/06/30 07:10:55;;;;;;;3.47;0.90;;;22.90;99.90;;;;;;5008742;28;20105;-82
2023/06/30 07:13:21;;;;;;;4.65;1.27;;;22.70;99.90;;;;;;5016063;28;20042;-83
2023/06/30 07:15:48;;;;;;;1.90;0.52;;;22.60;99.90;;;;;;5021506;28;20033;-82
2023/06/30 07:18:18;;;;;;;6.03;0.95;;;22.70;99.90;;;;;;5021297;28;20046;-82
2023/06/30 07:20:44;;;;;;;4.65;1.13;;;22.90;99.90;;;;;;5009522;28;20076;-81
2023/06/30 07:23:10;;;;;;;4.80;1.30;;;23.00;99.90;;;;;;5028912;28;20042;-81
2023/06/30 07:25:35;;;;;;;2.50;0.65;;;22.80;99.90;;;;;;5025152;28;20042;-81
2023/06/30 07:28:02;;;;;;;4.68;0.85;;;22.50;99.90;;;;;;5025294;28;20119;-82
2023/06/30 07:30:31;;;;;;;3.38;0.63;;;22.30;99.90;;;;;;5021049;28;20060;-83
2023/06/30 07:33:00;;;;;;;4.82;1.23;;;22.20;99.90;;;;;;4985066;28;20057;-83
2023/06/30 07:35:25;;;;;;;4.28;0.80;;;22.20;99.90;;;;;;5020677;28;20046;-83
2023/06/30 07:37:51;;;;;;;3.60;0.88;;;22.20;99.90;;;;;;5022056;28;20037;-83
2023/06/30 07:40:17;;;;;;;5.22;1.00;;;22.10;99.90;;;;;;5025758;28;20046;-84
2023/06/30 07:42:46;;;;;;;5.03;0.90;;;22.10;99.90;;;;;;5022649;28;20117;-84
2023/06/30 07:45:13;;;;;;;2.67;0.52;;;22.30;99.90;;;;;;5019646;28;20046;-84
2023/06/30 07:47:40;;;;;;;3.58;0.65;;;22.40;99.90;;;;;;5016446;28;20054;-85
2023/06/30 07:50:09;;;;;;;2.88;0.90;;;21.80;99.90;;;;;;5027089;28;20046;-83
2023/06/30 07:52:42;;;;;;;2.10;0.55;;;21.80;99.90;;;;;;5026190;28;20034;-82
2023/06/30 07:55:10;;;;;;;7.40;0.85;;;21.90;99.90;;;;;;5025541;28;20065;-83
2023/06/30 07:57:35;;;;;;;2.25;0.50;;;21.90;99.90;;;;;;5023749;28;20378;-82
2023/06/30 08:00:01;;;;;;;3.53;0.77;;;21.80;99.90;;;;;;5023056;28;20061;-82
2023/06/30 08:02:27;;;;;;;2.97;0.60;;;21.60;99.90;;;;;;5019470;28;20443;-82
2023/06/30 08:04:53;;;;;;;2.67;0.70;;;21.60;99.90;;;;;;5017012;28;20129;-81
2023/06/30 08:07:18;;;;;;;5.85;0.57;;;21.50;99.90;;;;;;5021179;28;20045;-81
2023/06/30 08:09:44;;;;;;;8.93;1.20;;;21.90;99.90;;;;;;5020594;28;20055;-81
2023/06/30 08:12:09;;;;;;;3.47;0.55;;;21.90;99.90;;;;;;5017187;28;20940;-82
2023/06/30 08:14:37;;;;;;;5.65;1.27;;;22.10;99.90;;;;;;5021507;28;20087;-82
2023/06/30 08:17:03;;;;;;;3.47;0.63;;;22.40;99.90;;;;;;5004148;28;20073;-83
2023/06/30 08:19:29;;;;;;;6.72;0.55;;;22.60;99.90;;;;;;5004086;28;20088;-84
2023/06/30 08:21:54;;;;;;;3.97;0.60;;;22.70;99.90;;;;;;5011485;28;20042;-84
2023/06/30 08:24:20;;;;;;;8.52;1.40;;;23.00;99.90;;;;;;5009723;28;20046;-84
2023/06/30 08:26:46;;;;;;;3.30;0.38;;;22.80;99.90;;;;;;5010956;28;20056;-83
2023/06/30 08:29:13;;;;;;;4.45;1.17;;;22.80;99.90;;;;;;5014208;28;20042;-83
2023/06/30 08:31:39;;;;;;;5.22;1.08;;;23.00;99.90;;;;;;5015471;28;20038;-83
2023/06/30 08:34:05;;;;;;;8.07;0.93;;;23.10;99.90;;;;;;5011186;28;20034;-83
2023/06/30 08:36:31;;;;;;;4.03;0.63;;;23.20;99.90;;;;;;5012086;28;20048;-83
2023/06/30 08:38:57;;;;;;;0.80;0.32;;;23.10;99.90;;;;;;5014913;28;20033;-84
2023/06/30 08:41:24;;;;;;;8.45;1.25;;;23.20;99.90;;;;;;4996834;28;20077;-84
2023/06/30 08:43:53;;;;;;;6.13;0.93;;;23.30;99.90;;;;;;5011534;28;20037;-85
2023/06/30 08:46:34;;;;;;;3.85;0.85;;;23.40;99.90;;;;;;4992955;28;20780;-84
2023/06/30 08:49:02;;;;;;;3.90;0.65;;;23.60;99.90;;;;;;5011110;28;20049;-84
2023/06/30 08:51:30;;;;;;;5.32;0.60;;;23.70;99.90;;;;;;5000447;28;20905;-84
2023/06/30 08:53:56;;;;;;;4.63;0.60;;;23.80;99.90;;;;;;4988646;28;20037;-84
2023/06/30 08:56:24;;;;;;;3.45;0.50;;;23.90;99.50;;;;;;5007713;28;20503;-83
2023/06/30 08:58:49;;;;;;;2.28;0.57;;;24.00;99.10;;;;;;4997565;28;20041;-84
2023/06/30 09:01:16;;;;;;;4.95;1.05;;;24.20;98.70;;;;;;5009288;28;20061;-84
2023/06/30 09:03:43;;;;;;;4.82;0.50;;;24.20;98.60;;;;;;5008754;28;20309;-85
2023/06/30 09:06:11;;;;;;;3.20;0.98;;;24.10;98.90;;;;;;4995438;28;20080;-83
2023/06/30 09:09:03;;;;;;;4.13;0.75;;;23.90;98.50;;;;;;5009706;28;20038;-83
2023/06/30 09:11:31;;;;;;;1.25;0.35;;;23.90;98.90;;;;;;4992634;28;20100;-83
2023/06/30 09:14:01;;;;;;;3.95;1.25;;;23.90;99.50;;;;;;5006843;28;20037;-83
2023/06/30 09:16:31;;;;;;;3.95;0.50;;;24.10;99.00;;;;;;5006314;28;20038;-84
2023/06/30 09:19:00;;;;;;;2.47;0.60;;;24.00;98.50;;;;;;5012834;28;20136;-82
2023/06/30 09:21:25;;;;;;;2.25;0.50;;;24.20;98.50;;;;;;5008822;28;20498;-83
2023/06/30 09:23:51;;;;;;;11.63;1.30;;;24.30;98.20;;;;;;5010595;28;20046;-83
2023/06/30 09:26:18;;;;;;;2.35;0.60;;;24.40;98.00;;;;;;4991553;28;20042;-83
2023/06/30 09:28:45;;;;;;;2.78;0.55;;;24.40;97.50;;;;;;5011350;28;20076;-83
2023/06/30 09:31:16;;;;;;;3.75;0.63;;;24.40;97.40;;;;;;5008207;28;20500;-85
2023/06/30 09:33:43;;;;;;;1.65;0.40;;;24.10;97.20;;;;;;4975976;28;20107;-83
2023/06/30 09:36:17;;;;;;;4.78;0.57;;;23.80;96.90;;;;;;5008767;28;20030;-83
2023/06/30 09:38:43;;;;;;;2.20;0.68;;;24.20;97.70;;;;;;5009606;28;20451;-83
2023/06/30 09:41:19;;;;;;;2.50;0.70;;;23.70;97.50;;;;;;4994334;28;20169;-84
2023/06/30 09:43:45;;;;;;;4.15;0.70;;;23.60;97.40;;;;;;5009412;28;20037;-84
2023/06/30 09:46:11;;;;;;;4.13;0.80;;;23.50;97.00;;;;;;5002026;28;20041;-82
2023/06/30 09:48:39;;;;;;;2.03;0.50;;;23.40;97.20;;;;;;5008002;28;20053;-83
2023/06/30 09:51:07;;;;;;;5.53;0.60;;;23.30;97.40;;;;;;5002053;28;20038;-83
2023/06/30 09:53:40;;;;;;;2.67;0.55;;;23.10;98.10;;;;;;5005354;28;20148;-83
2023/06/30 09:56:11;;;;;;;6.43;0.70;;;22.90;97.60;;;;;;5005782;28;20100;-84
2023/06/30 09:58:39;;;;;;;2.10;0.55;;;23.10;98.40;;;;;;4994224;28;20077;-83
2023/06/30 10:01:06;;;;;;;3.92;0.82;;;22.60;98.50;;;;;;5005749;28;20400;-84
2023/06/30 10:03:32;;;;;;;2.28;0.70;;;22.40;98.70;;;;;;5004156;28;20072;-83
2023/06/30 10:05:57;;;;;;;3.22;0.75;;;22.30;99.00;;;;;;5010822;28;20408;-83
2023/06/30 10:08:24;;;;;;;2.92;0.65;;;22.20;99.30;;;;;;5004376;28;20050;-83
2023/06/30 10:10:55;;;;;;;4.18;0.70;;;22.40;99.90;;;;;;5005017;28;20053;-82
2023/06/30 10:13:21;;;;;;;7.13;1.60;;;22.70;99.80;;;;;;5007649;28;20038;-82
2023/06/30 10:15:47;;;;;;;5.47;0.85;;;22.90;99.60;;;;;;5007168;28;20831;-83
2023/06/30 10:18:23;;;;;;;3.88;0.60;;;23.10;99.20;;;;;;5010318;28;20396;-84
2023/06/30 10:20:52;;;;;;;8.50;0.80;;;23.00;96.00;;;;;;4997884;28;20042;-82
2023/06/30 10:23:20;;;;;;;3.78;0.60;;;23.10;97.40;;;;;;5013403;28;20057;-83
2023/06/30 10:25:48;;;;;;;3.50;1.25;;;23.50;96.60;;;;;;4993657;28;20053;-83
2023/06/30 10:28:14;;;;;;;3.30;0.70;;;23.60;96.10;;;;;;5010346;28;20073;-83
2023/06/30 10:30:40;;;;;;;3.58;0.60;;;23.60;94.50;;;;;;5008274;28;20074;-83
2023/06/30 10:33:06;;;;;;;2.85;0.60;;;23.80;95.30;;;;;;5007326;28;20892;-84
2023/06/30 10:35:33;;;;;;;3.80;0.60;;;23.90;94.90;;;;;;4992289;28;20169;-85
2023/06/30 10:37:59;;;;;;;1.95;0.43;;;23.90;95.50;;;;;;5007912;28;20046;-84
2023/06/30 10:40:29;;;;;;;1.65;0.50;;;23.70;95.30;;;;;;5011486;28;21073;-83
2023/06/30 10:42:56;;;;;;;5.70;0.60;;;23.60;95.90;;;;;;5008194;28;20037;-83
2023/06/30 10:45:30;;;;;;;2.75;0.52;;;23.30;95.50;;;;;;4992010;28;20096;-83
2023/06/30 10:47:56;;;;;;;4.55;1.08;;;23.10;95.60;;;;;;5002176;28;20121;-84
2023/06/30 10:50:23;;;;;;;3.38;0.57;;;22.80;96.10;;;;;;5010478;28;20477;-83
2023/06/30 10:52:53;;;;;;;2.95;0.50;;;22.70;96.70;;;;;;5012934;28;20065;-83
2023/06/30 10:55:33;;;;;;;2.47;0.88;;;22.60;96.40;;;;;;4994785;28;20042;-83
2023/06/30 10:58:02;;;;;;;4.80;0.90;;;22.70;96.30;;;;;;4995051;28;20053;-84
2023/06/30 11:00:31;;;;;;;2.45;0.50;;;23.00;97.60;;;;;;5010697;28;20041;-83
2023/06/30 11:02:58;;;;;;;3.13;0.50;;;23.30;95.90;;;;;;5013659;28;20064;-83
2023/06/30 11:05:29;;;;;;;3.08;0.70;;;23.40;95.40;;;;;;5013817;28;20104;-84
2023/06/30 11:08:37;;;;;;;2.60;0.68;;;23.40;95.50;;;;;;5012481;28;20054;-84
2023/06/30 11:11:06;;;;;;;1.92;0.70;;;23.50;95.10;;;;;;5009118;28;20025;-83
2023/06/30 11:13:43;;;;;;;1.73;0.60;;;23.60;95.50;;;;;;5008601;28;20384;-85
2023/06/30 11:16:14;;;;;;;3.28;0.82;;;23.40;96.00;;;;;;4995256;28;20092;-83
2023/06/30 11:18:39;;;;;;;5.40;0.65;;;23.20;96.10;;;;;;5016809;28;20385;-84
2023/06/30 11:21:06;;;;;;;3.40;0.85;;;23.20;96.10;;;;;;5013281;28;20040;-84
2023/06/30 11:23:36;;;;;;;5.68;0.50;;;23.30;96.20;;;;;;5014154;28;20073;-84
2023/06/30 11:26:35;;;;;;;2.75;0.98;;;23.10;96.30;;;;;;5015119;28;20041;-83
2023/06/30 11:29:02;;;;;;;5.80;0.93;;;23.10;96.80;;;;;;4990964;28;20145;-84
2023/06/30 11:31:36;;;;;;;2.63;0.60;;;23.30;96.70;;;;;;4994627;28;20034;-82
2023/06/30 11:34:01;;;;;;;4.35;0.80;;;23.60;96.10;;;;;;5013882;28;20038;-84
2023/06/30 11:36:36;;;;;;;4.50;0.82;;;23.60;96.30;;;;;;5022086;28;20045;-85
2023/06/30 11:39:13;;;;;;;13.68;1.17;;;23.80;95.30;;;;;;5000870;28;20065;-84
2023/06/30 11:41:43;;;;;;;4.30;1.13;;;23.70;94.80;;;;;;5014851;28;20115;-84
2023/06/30 11:44:11;;;;;;;9.02;1.02;;;23.80;94.10;;;;;;5014267;28;20041;-85
2023/06/30 11:46:37;;;;;;;10.23;0.80;;;23.90;93.90;;;;;;5004836;28;20092;-83
2023/06/30 11:49:03;;;;;;;15.30;1.38;;;24.20;94.00;;;;;;4996975;28;20042;-84
2023/06/30 11:51:30;;;;;;;8.48;1.38;;;24.10;94.50;;;;;;4998320;28;20045;-84
2023/06/30 11:53:55;;;;;;;9.55;1.67;;;24.20;92.50;;;;;;5016381;28;20108;-84
2023/06/30 11:56:21;;;;;;;2.38;0.70;;;24.30;94.40;;;;;;5016843;28;20045;-83
2023/06/30 11:59:10;;;;;;;4.25;0.77;;;24.40;94.20;;;;;;4997234;28;20046;-84
2023/06/30 12:01:36;;;;;;;3.40;0.68;;;24.50;94.50;;;;;;4997866;28;20516;-85
2023/06/30 12:04:10;;;;;;;2.50;0.70;;;24.20;93.50;;;;;;5019919;28;20042;-84
2023/06/30 12:06:36;;;;;;;2.40;0.80;;;24.10;94.10;;;;;;5010846;28;20045;-85
2023/06/30 12:09:02;;;;;;;3.45;0.60;;;23.90;94.80;;;;;;5012800;28;20050;-85
2023/06/30 12:11:31;;;;;;;3.78;0.75;;;24.30;94.10;;;;;;5016784;28;20053;-84
2023/06/30 12:13:57;;;;;;;2.92;0.50;;;24.60;94.00;;;;;;4999827;28;20050;-86
2023/06/30 12:16:26;;;;;;;4.68;0.82;;;24.30;93.60;;;;;;4996142;28;20110;-84
2023/06/30 12:18:53;;;;;;;4.45;0.70;;;24.50;93.70;;;;;;4996822;28;20124;-83
2023/06/30 12:21:19;;;;;;;3.47;0.65;;;24.60;93.40;;;;;;5012836;28;20046;-83
2023/06/30 12:23:45;;;;;;;6.70;1.23;;;24.80;94.40;;;;;;5015806;28;20041;-83
2023/06/30 12:26:12;;;;;;;4.07;0.68;;;24.70;94.10;;;;;;5015431;28;20107;-83
2023/06/30 12:28:38;;;;;;;2.72;0.50;;;24.70;93.40;;;;;;5016025;28;20045;-84
2023/06/30 12:31:03;;;;;;;4.00;0.75;;;24.80;93.40;;;;;;5013732;28;20037;-84
2023/06/30 12:33:29;;;;;;;7.63;0.70;;;25.00;92.70;;;;;;4995451;28;21492;-84
2023/06/30 12:35:55;;;;;;;4.05;0.88;;;25.00;93.10;;;;;;5019829;28;20656;-85
2023/06/30 12:38:20;;;;;;;5.90;0.70;;;25.00;92.70;;;;;;5015594;28;20041;-84
2023/06/30 12:40:46;;;;;;;10.25;1.00;;;25.20;93.00;;;;;;5027231;28;20037;-86
2023/06/30 12:43:11;;;;;;;12.00;1.05;;;24.70;92.20;;;;;;5016166;28;20080;-83
2023/06/30 12:45:37;;;;;;;2.08;0.73;;;24.70;92.60;;;;;;5015966;28;20113;-83